sensor_id;sensor_type;location;lat;lon;timestamp;temperature;humidity
1578;DHT22;57623;53.608;10.004;2024-03-23T00:53:43;7.80;99.90
1578;DHT22;57623;53.608;10.004;2024-03-23T00:56:10;7.80;99.90
1578;DHT22;57623;53.608;10.004;2024-03-23T00:58:36;7.70;99.90
1578;DHT22;57623;53.608;10.004;2024-03-23T01:01:03;7.70;99.90
1578;DHT22;57623;53.608;10.004;2024-03-23T01:03:29;7.70;99.90
1578;DHT22;57623;53.608;10.004;2024-03-23T01:05:59;7.70;99.90
1578;DHT22;57623;53.608;10.004;2024-03-23T01:08:25;7.70;99.90
1578;DHT22;57623;53.608;10.004;2024-03-23T01:10:58;7.60;99.90
1578;DHT22;57623;53.608;10.004;2024-03-23T01:13:24;7.60;99.90
1578;DHT22;57623;53.608;10.004;2024-03-23T01:15:52;7.60;99.90
1578;DHT22;57623;53.608;10.004;2024-03-23T01:18:19;7.60;99.90
1578;DHT22;57623;53.608;10.004;2024-03-23T01:20:46;7.60;99.90
1578;DHT22;57623;53.608;10.004;2024-03-23T01:23:13;7.60;99.90
1578;DHT22;57623;53.608;10.004;2024-03-23T01:25:40;7.60;99.90
1578;DHT22;57623;53.608;10.004;2024-03-23T01:28:08;7.50;99.90
1578;DHT22;57623;53.608;10.004;2024-03-23T01:30:35;7.60;99.90
1578;DHT22;57623;53.608;10.004;2024-03-23T01:33:02;7.50;99.90
1578;DHT22;57623;53.608;10.004;2024-03-23T01:35:28;7.50;99.90
1578;DHT22;57623;53.608;10.004;2024-03-23T01:37:55;7.50;99.90
1578;DHT22;57623;53.608;10.004;2024-03-23T01:40:21;7.50;99.90
1578;DHT22;57623;53.608;10.004;2024-03-23T01:42:55;7.50;99.90
1578;DHT22;57623;53.608;10.004;2024-03-23T01:45:23;7.50;99.90
1578;DHT22;57623;53.608;10.004;2024-03-23T01:47:50;7.50;99.90
1578;DHT22;57623;53.608;10.004;2024-03-23T01:50:16;7.50;99.90
1578;DHT22;57623;53.608;10.004;2024-03-23T01:52:44;7.50;99.90
1578;DHT22;57623;53.608;10.004;2024-03-23T01:55:10;7.50;99.90
1578;DHT22;57623;53.608;10.004;2024-03-23T01:57:38;7.40;99.90
1578;DHT22;57623;53.608;10.004;2024-03-23T02:00:05;7.40;99.90
1578;DHT22;57623;53.608;10.004;2024-03-23T02:02:34;7.40;99.90
1578;DHT22;57623;53.608;10.004;2024-03-23T02:05:00;7.40;99.90
1578;DHT22;57623;53.608;10.004;2024-03-23T02:07:27;7.40;99.90
1578;DHT22;57623;53.608;10.004;2024-03-23T02:09:53;7.40;99.90
1578;DHT22;57623;53.608;10.004;2024-03-23T02:12:21;7.30;99.90
1578;DHT22;57623;53.608;10.004;2024-03-23T02:14:47;7.40;99.90
1578;DHT22;57623;53.608;10.004;2024-03-23T02:17:14;7.30;99.90
1578;DHT22;57623;53.608;10.004;2024-03-23T02:19:42;7.40;99.90
1578;DHT22;57623;53.608;10.004;2024-03-23T02:22:09;7.30;99.90
1578;DHT22;57623;53.608;10.004;2024-03-23T02:24:37;7.30;99.90
1578;DHT22;57623;53.608;10.004;2024-03-23T02:27:04;7.30;99.90
1578;DHT22;57623;53.608;10.004;2024-03-23T02:29:30;7.30;99.90
1578;DHT22;57623;53.608;10.004;2024-03-23T02:31:57;7.30;99.90
1578;DHT22;57623;53.608;10.004;2024-03-23T02:34:24;7.20;99.90
1578;DHT22;57623;53.608;10.004;2024-03-23T02:36:51;7.20;99.90
1578;DHT22;57623;53.608;10.004;2024-03-23T02:39:17;7.20;99.90
1578;DHT22;57623;53.608;10.004;2024-03-23T02:41:46;7.20;99.90
1578;DHT22;57623;53.608;10.004;2024-03-23T02:44:13;7.20;99.90
1578;DHT22;57623;53.608;10.004;2024-03-23T02:46:40;7.20;99.90
1578;DHT22;57623;53.608;10.004;2024-03-23T02:49:07;7.20;99.90
1578;DHT22;57623;53.608;10.004;2024-03-23T02:51:34;7.10;99.90
1578;DHT22;57623;53.608;10.004;2024-03-23T02:54:00;7.10;99.90
1578;DHT22;57623;53.608;10.004;2024-03-23T02:56:27;7.10;99.90
1578;DHT22;57623;53.608;10.004;2024-03-23T02:58:54;7.10;99.90
1578;DHT22;57623;53.608;10.004;2024-03-23T03:01:21;7.10;99.90
1578;DHT22;57623;53.608;10.004;2024-03-23T03:03:47;7.10;99.90
1578;DHT22;57623;53.608;10.004;2024-03-23T03:06:23;7.10;99.90
1578;DHT22;57623;53.608;10.004;2024-03-23T03:08:49;7.10;99.90
1578;DHT22;57623;53.608;10.004;2024-03-23T03:11:16;7.10;99.90
1578;DHT22;57623;53.608;10.004;2024-03-23T03:13:42;7.00;99.90
1578;DHT22;57623;53.608;10.004;2024-03-23T03:16:11;7.10;99.90
1578;DHT22;57623;53.608;10.004;2024-03-23T03:18:37;7.00;99.90
1578;DHT22;57623;53.608;10.004;2024-03-23T03:21:04;7.10;99.90
1578;DHT22;57623;53.608;10.004;2024-03-23T03:23:31;7.00;99.90
1578;DHT22;57623;53.608;10.004;2024-03-23T03:25:58;7.00;99.90
1578;DHT22;57623;53.608;10.004;2024-03-23T03:28:24;7.00;99.90
1578;DHT22;57623;53.608;10.004;2024-03-23T03:30:56;7.00;99.90
1578;DHT22;57623;53.608;10.004;2024-03-23T03:33:23;7.00;99.90
1578;DHT22;57623;53.608;10.004;2024-03-23T03:35:51;7.00;99.90
1578;DHT22;57623;53.608;10.004;2024-03-23T03:38:18;7.00;99.90
1578;DHT22;57623;53.608;10.004;2024-03-23T03:40:45;7.00;99.90
1578;DHT22;57623;53.608;10.004;2024-03-23T03:43:11;7.00;99.90
1578;DHT22;57623;53.608;10.004;2024-03-23T03:45:38;7.00;99.90
1578;DHT22;57623;53.608;10.004;2024-03-23T03:48:05;7.00;99.90
1578;DHT22;57623;53.608;10.004;2024-03-23T03:50:34;6.90;99.90
1578;DHT22;57623;53.608;10.004;2024-03-23T03:53:00;6.90;99.90
1578;DHT22;57623;53.608;10.004;2024-03-23T03:55:27;7.00;99.90
1578;DHT22;57623;53.608;10.004;2024-03-23T03:57:53;6.90;99.90
1578;DHT22;57623;53.608;10.004;2024-03-23T04:00:20;6.90;99.90
1578;DHT22;57623;53.608;10.004;2024-03-23T04:02:46;6.90;99.90
1578;DHT22;57623;53.608;10.004;2024-03-23T04:05:13;6.90;99.90
1578;DHT22;57623;53.608;10.004;2024-03-23T04:07:42;6.90;99.90
1578;DHT22;57623;53.608;10.004;2024-03-23T04:10:09;6.90;99.90
1578;DHT22;57623;53.608;10.004;2024-03-23T04:12:35;6.80;99.90
1578;DHT22;57623;53.608;10.004;2024-03-23T04:15:03;6.80;99.90
1578;DHT22;57623;53.608;10.004;2024-03-23T04:17:31;6.80;99.90
1578;DHT22;57623;53.608;10.004;2024-03-23T04:20:00;6.80;99.90
1578;DHT22;57623;53.608;10.004;2024-03-23T04:22:26;6.90;99.90
1578;DHT22;57623;53.608;10.004;2024-03-23T04:24:56;6.80;99.90
1578;DHT22;57623;53.608;10.004;2024-03-23T04:27:22;6.80;99.90
1578;DHT22;57623;53.608;10.004;2024-03-23T04:29:50;6.80;99.90
1578;DHT22;57623;53.608;10.004;2024-03-23T04:32:16;6.80;99.90
1578;DHT22;57623;53.608;10.004;2024-03-23T04:34:44;6.80;99.90
1578;DHT22;57623;53.608;10.004;2024-03-23T04:37:10;6.80;99.90
1578;DHT22;57623;53.608;10.004;2024-03-23T04:39:38;6.80;99.90
1578;DHT22;57623;53.608;10.004;2024-03-23T04:42:07;6.70;99.90
1578;DHT22;57623;53.608;10.004;2024-03-23T04:44:34;6.70;99.90
1578;DHT22;57623;53.608;10.004;2024-03-23T04:47:01;6.80;99.90
1578;DHT22;57623;53.608;10.004;2024-03-23T04:49:28;6.80;99.90
1578;DHT22;57623;53.608;10.004;2024-03-23T04:51:55;6.70;99.90
1578;DHT22;57623;53.608;10.004;2024-03-23T04:54:22;6.70;99.90
1578;DHT22;57623;53.608;10.004;2024-03-23T04:56:49;6.70;99.90
1578;DHT22;57623;53.608;10.004;2024-03-23T04:59:18;6.70;99.90
1578;DHT22;57623;53.608;10.004;2024-03-23T05:01:44;6.70;99.90
1578;DHT22;57623;53.608;10.004;2024-03-23T05:04:11;6.70;99.90
1578;DHT22;57623;53.608;10.004;2024-03-23T05:06:37;6.70;99.90
1578;DHT22;57623;53.608;10.004;2024-03-23T05:09:04;6.70;99.90
1578;DHT22;57623;53.608;10.004;2024-03-23T05:11:32;6.70;99.90
1578;DHT22;57623;53.608;10.004;2024-03-23T05:13:59;6.70;99.90
1578;DHT22;57623;53.608;10.004;2024-03-23T05:16:27;6.70;99.90
1578;DHT22;57623;53.608;10.004;2024-03-23T05:18:54;6.70;99.90
1578;DHT22;57623;53.608;10.004;2024-03-23T05:21:20;6.70;99.90
1578;DHT22;57623;53.608;10.004;2024-03-23T05:23:47;6.70;99.90
1578;DHT22;57623;53.608;10.004;2024-03-23T05:26:13;6.60;99.90
1578;DHT22;57623;53.608;10.004;2024-03-23T05:28:40;6.60;99.90
1578;DHT22;57623;53.608;10.004;2024-03-23T05:31:06;6.60;99.90
1578;DHT22;57623;53.608;10.004;2024-03-23T05:33:36;6.60;99.90
1578;DHT22;57623;53.608;10.004;2024-03-23T05:36:04;6.60;99.90
1578;DHT22;57623;53.608;10.004;2024-03-23T05:38:31;6.60;99.90
1578;DHT22;57623;53.608;10.004;2024-03-23T05:40:58;6.60;99.90
1578;DHT22;57623;53.608;10.004;2024-03-23T05:43:26;6.60;99.90
1578;DHT22;57623;53.608;10.004;2024-03-23T05:45:53;6.60;99.90
1578;DHT22;57623;53.608;10.004;2024-03-23T05:48:21;6.60;99.90
1578;DHT22;57623;53.608;10.004;2024-03-23T05:50:48;6.60;99.90
1578;DHT22;57623;53.608;10.004;2024-03-23T05:53:15;6.60;99.90
1578;DHT22;57623;53.608;10.004;2024-03-23T05:55:42;6.60;99.90
1578;DHT22;57623;53.608;10.004;2024-03-23T05:58:09;6.60;99.90
1578;DHT22;57623;53.608;10.004;2024-03-23T06:00:36;6.60;99.90
1578;DHT22;57623;53.608;10.004;2024-03-23T06:03:03;6.60;99.90
1578;DHT22;57623;53.608;10.004;2024-03-23T06:05:29;6.60;99.90
1578;DHT22;57623;53.608;10.004;2024-03-23T06:07:58;6.60;99.90
1578;DHT22;57623;53.608;10.004;2024-03-23T06:10:24;6.60;99.90
1578;DHT22;57623;53.608;10.004;2024-03-23T06:12:51;6.60;99.90
1578;DHT22;57623;53.608;10.004;2024-03-23T06:15:17;6.60;99.90
1578;DHT22;57623;53.608;10.004;2024-03-23T06:17:45;6.60;99.90
1578;DHT22;57623;53.608;10.004;2024-03-23T06:20:12;6.60;99.90
1578;DHT22;57623;53.608;10.004;2024-03-23T06:22:39;6.60;99.90
1578;DHT22;57623;53.608;10.004;2024-03-23T06:25:08;6.60;99.90
1578;DHT22;57623;53.608;10.004;2024-03-23T06:27:35;6.70;99.90
1578;DHT22;57623;53.608;10.004;2024-03-23T06:30:01;6.70;99.90
1578;DHT22;57623;53.608;10.004;2024-03-23T06:32:28;6.70;99.90
1578;DHT22;57623;53.608;10.004;2024-03-23T06:34:55;6.70;99.90
1578;DHT22;57623;53.608;10.004;2024-03-23T06:37:22;6.70;99.90
1578;DHT22;57623;53.608;10.004;2024-03-23T06:39:48;6.70;99.90
1578;DHT22;57623;53.608;10.004;2024-03-23T06:42:16;6.70;99.90
1578;DHT22;57623;53.608;10.004;2024-03-23T06:44:43;6.70;99.90
1578;DHT22;57623;53.608;10.004;2024-03-23T06:47:10;6.80;99.90
1578;DHT22;57623;53.608;10.004;2024-03-23T06:49:36;6.80;99.90
1578;DHT22;57623;53.608;10.004;2024-03-23T06:52:04;6.80;99.90
1578;DHT22;57623;53.608;10.004;2024-03-23T06:54:30;6.80;99.90
1578;DHT22;57623;53.608;10.004;2024-03-23T06:56:57;6.90;99.90
1578;DHT22;57623;53.608;10.004;2024-03-23T06:59:25;6.80;99.90
1578;DHT22;57623;53.608;10.004;2024-03-23T07:01:52;6.80;99.90
1578;DHT22;57623;53.608;10.004;2024-03-23T07:04:18;6.80;99.90
1578;DHT22;57623;53.608;10.004;2024-03-23T07:06:45;6.80;99.90
1578;DHT22;57623;53.608;10.004;2024-03-23T07:09:11;6.80;99.90
1578;DHT22;57623;53.608;10.004;2024-03-23T07:11:39;6.80;99.90
1578;DHT22;57623;53.608;10.004;2024-03-23T07:14:05;6.80;99.90
1578;DHT22;57623;53.608;10.004;2024-03-23T07:16:34;6.80;99.90
1578;DHT22;57623;53.608;10.004;2024-03-23T07:19:00;6.80;99.90
1578;DHT22;57623;53.608;10.004;2024-03-23T07:21:27;6.80;99.90
1578;DHT22;57623;53.608;10.004;2024-03-23T07:23:53;6.80;99.90
1578;DHT22;57623;53.608;10.004;2024-03-23T07:26:20;6.80;99.90
1578;DHT22;57623;53.608;10.004;2024-03-23T07:28:46;6.80;99.90
1578;DHT22;57623;53.608;10.004;2024-03-23T07:31:15;6.90;99.90
1578;DHT22;57623;53.608;10.004;2024-03-23T07:33:46;6.90;99.90
1578;DHT22;57623;53.608;10.004;2024-03-23T07:36:13;7.00;99.90
1578;DHT22;57623;53.608;10.004;2024-03-23T07:38:41;7.00;99.90
1578;DHT22;57623;53.608;10.004;2024-03-23T07:41:10;7.00;99.90
1578;DHT22;57623;53.608;10.004;2024-03-23T07:43:37;7.10;99.90
1578;DHT22;57623;53.608;10.004;2024-03-23T07:46:05;7.10;99.90
1578;DHT22;57623;53.608;10.004;2024-03-23T07:48:31;7.10;99.90
1578;DHT22;57623;53.608;10.004;2024-03-23T07:51:01;7.10;99.90
1578;DHT22;57623;53.608;10.004;2024-03-23T07:53:28;7.10;99.90
1578;DHT22;57623;53.608;10.004;2024-03-23T07:55:56;7.20;99.90
1578;DHT22;57623;53.608;10.004;2024-03-23T07:58:22;7.20;99.90
1578;DHT22;57623;53.608;10.004;2024-03-23T08:00:49;7.20;99.90
1578;DHT22;57623;53.608;10.004;2024-03-23T08:03:15;7.30;99.90
1578;DHT22;57623;53.608;10.004;2024-03-23T08:05:42;7.30;99.90
1578;DHT22;57623;53.608;10.004;2024-03-23T08:08:10;7.40;99.90
1578;DHT22;57623;53.608;10.004;2024-03-23T08:10:37;7.50;99.90
1578;DHT22;57623;53.608;10.004;2024-03-23T08:13:12;7.50;99.90
1578;DHT22;57623;53.608;10.004;2024-03-23T08:15:39;7.50;99.90
1578;DHT22;57623;53.608;10.004;2024-03-23T08:18:05;7.60;99.90
1578;DHT22;57623;53.608;10.004;2024-03-23T08:20:32;7.60;99.90
1578;DHT22;57623;53.608;10.004;2024-03-23T08:22:58;7.70;99.90
1578;DHT22;57623;53.608;10.004;2024-03-23T08:25:27;7.80;99.90
1578;DHT22;57623;53.608;10.004;2024-03-23T08:27:53;7.90;99.90
1578;DHT22;57623;53.608;10.004;2024-03-23T08:30:20;7.90;99.90
1578;DHT22;57623;53.608;10.004;2024-03-23T08:32:46;8.00;99.90
1578;DHT22;57623;53.608;10.004;2024-03-23T08:35:13;8.10;99.90
1578;DHT22;57623;53.608;10.004;2024-03-23T08:37:39;8.10;99.90
1578;DHT22;57623;53.608;10.004;2024-03-23T08:40:07;8.10;99.90
1578;DHT22;57623;53.608;10.004;2024-03-23T08:42:35;8.10;99.90
1578;DHT22;57623;53.608;10.004;2024-03-23T08:45:03;8.20;99.90
1578;DHT22;57623;53.608;10.004;2024-03-23T08:47:29;8.30;99.90
1578;DHT22;57623;53.608;10.004;2024-03-23T08:49:56;8.40;99.90
1578;DHT22;57623;53.608;10.004;2024-03-23T08:52:23;8.40;99.90
1578;DHT22;57623;53.608;10.004;2024-03-23T08:54:53;8.40;99.90
1578;DHT22;57623;53.608;10.004;2024-03-23T08:57:19;8.40;99.90
1578;DHT22;57623;53.608;10.004;2024-03-23T08:59:47;8.50;99.90
1578;DHT22;57623;53.608;10.004;2024-03-23T09:02:13;8.50;99.90
1578;DHT22;57623;53.608;10.004;2024-03-23T09:04:40;8.60;99.90
1578;DHT22;57623;53.608;10.004;2024-03-23T09:07:06;8.70;99.90
1578;DHT22;57623;53.608;10.004;2024-03-23T09:09:34;8.80;99.90
1578;DHT22;57623;53.608;10.004;2024-03-23T09:12:00;8.80;99.90
1578;DHT22;57623;53.608;10.004;2024-03-23T09:14:27;9.00;99.90
1578;DHT22;57623;53.608;10.004;2024-03-23T09:16:54;9.10;99.90
1578;DHT22;57623;53.608;10.004;2024-03-23T09:19:21;9.10;99.90
1578;DHT22;57623;53.608;10.004;2024-03-23T09:21:47;9.10;99.90
1578;DHT22;57623;53.608;10.004;2024-03-23T09:24:15;9.10;99.90
1578;DHT22;57623;53.608;10.004;2024-03-23T09:26:42;9.10;99.90
1578;DHT22;57623;53.608;10.004;2024-03-23T09:29:09;9.10;99.90
1578;DHT22;57623;53.608;10.004;2024-03-23T09:31:35;9.10;99.90
1578;DHT22;57623;53.608;10.004;2024-03-23T09:34:05;9.10;99.90
1578;DHT22;57623;53.608;10.004;2024-03-23T09:36:31;9.10;99.90
1578;DHT22;57623;53.608;10.004;2024-03-23T09:38:58;9.20;99.90
1578;DHT22;57623;53.608;10.004;2024-03-23T09:41:24;9.20;99.90
1578;DHT22;57623;53.608;10.004;2024-03-23T09:43:52;9.30;99.90
1578;DHT22;57623;53.608;10.004;2024-03-23T09:46:19;9.40;99.90
1578;DHT22;57623;53.608;10.004;2024-03-23T09:48:47;9.40;99.90
1578;DHT22;57623;53.608;10.004;2024-03-23T09:51:14;9.50;99.90
1578;DHT22;57623;53.608;10.004;2024-03-23T09:53:41;9.50;99.90
1578;DHT22;57623;53.608;10.004;2024-03-23T09:56:08;9.60;99.90
1578;DHT22;57623;53.608;10.004;2024-03-23T09:58:36;9.50;99.90
1578;DHT22;57623;53.608;10.004;2024-03-23T10:01:03;9.50;99.90
1578;DHT22;57623;53.608;10.004;2024-03-23T10:03:30;9.50;99.90
1578;DHT22;57623;53.608;10.004;2024-03-23T10:06:00;9.50;99.90
1578;DHT22;57623;53.608;10.004;2024-03-23T10:08:29;9.50;99.90
1578;DHT22;57623;53.608;10.004;2024-03-23T10:11:12;9.40;99.90
1578;DHT22;57623;53.608;10.004;2024-03-23T10:13:41;9.30;99.90
1578;DHT22;57623;53.608;10.004;2024-03-23T10:16:08;9.30;99.90
1578;DHT22;57623;53.608;10.004;2024-03-23T10:18:37;9.30;99.90
1578;DHT22;57623;53.608;10.004;2024-03-23T10:21:09;9.30;99.90
1578;DHT22;57623;53.608;10.004;2024-03-23T10:23:38;9.40;99.90
1578;DHT22;57623;53.608;10.004;2024-03-23T10:26:17;9.50;99.90
1578;DHT22;57623;53.608;10.004;2024-03-23T10:28:53;9.60;99.90
1578;DHT22;57623;53.608;10.004;2024-03-23T10:31:22;9.70;99.90
1578;DHT22;57623;53.608;10.004;2024-03-23T10:33:49;9.80;99.90
1578;DHT22;57623;53.608;10.004;2024-03-23T10:36:16;9.80;99.90
1578;DHT22;57623;53.608;10.004;2024-03-23T10:38:45;9.80;99.90
1578;DHT22;57623;53.608;10.004;2024-03-23T10:41:12;9.80;99.90
1578;DHT22;57623;53.608;10.004;2024-03-23T10:43:39;9.70;99.90
1578;DHT22;57623;53.608;10.004;2024-03-23T10:46:06;9.70;99.90
1578;DHT22;57623;53.608;10.004;2024-03-23T10:48:33;9.60;99.90
1578;DHT22;57623;53.608;10.004;2024-03-23T10:50:59;9.50;99.90
1578;DHT22;57623;53.608;10.004;2024-03-23T10:53:28;9.50;99.90
1578;DHT22;57623;53.608;10.004;2024-03-23T10:55:56;9.60;99.90
1578;DHT22;57623;53.608;10.004;2024-03-23T10:58:27;9.70;99.90
1578;DHT22;57623;53.608;10.004;2024-03-23T11:00:54;9.90;99.90
1578;DHT22;57623;53.608;10.004;2024-03-23T11:03:34;10.00;99.90
1578;DHT22;57623;53.608;10.004;2024-03-23T11:06:03;10.10;99.90
1578;DHT22;57623;53.608;10.004;2024-03-23T11:08:31;10.20;99.90
1578;DHT22;57623;53.608;10.004;2024-03-23T11:13:52;10.30;99.90
1578;DHT22;57623;53.608;10.004;2024-03-23T11:16:22;10.60;99.90
1578;DHT22;57623;53.608;10.004;2024-03-23T11:18:49;10.70;99.90
1578;DHT22;57623;53.608;10.004;2024-03-23T11:21:53;10.90;99.90
1578;DHT22;57623;53.608;10.004;2024-03-23T11:24:20;11.10;99.90
1578;DHT22;57623;53.608;10.004;2024-03-23T11:26:48;11.30;99.90
1578;DHT22;57623;53.608;10.004;2024-03-23T11:29:16;11.50;99.90
1578;DHT22;57623;53.608;10.004;2024-03-23T11:31:47;11.50;99.90
1578;DHT22;57623;53.608;10.004;2024-03-23T11:34:15;11.50;99.90
1578;DHT22;57623;53.608;10.004;2024-03-23T11:36:43;11.50;99.90
1578;DHT22;57623;53.608;10.004;2024-03-23T11:39:13;11.50;99.90
1578;DHT22;57623;53.608;10.004;2024-03-23T11:41:48;11.40;99.90
1578;DHT22;57623;53.608;10.004;2024-03-23T11:44:17;11.40;99.90
1578;DHT22;57623;53.608;10.004;2024-03-23T11:46:44;11.50;99.90
1578;DHT22;57623;53.608;10.004;2024-03-23T11:49:21;11.50;99.90
1578;DHT22;57623;53.608;10.004;2024-03-23T11:51:49;11.60;99.90
1578;DHT22;57623;53.608;10.004;2024-03-23T11:54:15;11.70;99.90
1578;DHT22;57623;53.608;10.004;2024-03-23T11:56:54;11.80;99.90
1578;DHT22;57623;53.608;10.004;2024-03-23T11:59:32;11.80;99.90
1578;DHT22;57623;53.608;10.004;2024-03-23T12:01:59;11.60;99.90
1578;DHT22;57623;53.608;10.004;2024-03-23T12:04:26;11.40;99.90
1578;DHT22;57623;53.608;10.004;2024-03-23T12:07:09;11.10;99.90
1578;DHT22;57623;53.608;10.004;2024-03-23T12:09:35;10.60;99.90
1578;DHT22;57623;53.608;10.004;2024-03-23T12:12:07;10.20;99.90
1578;DHT22;57623;53.608;10.004;2024-03-23T12:14:35;9.90;99.90
1578;DHT22;57623;53.608;10.004;2024-03-23T12:17:12;9.60;99.90
1578;DHT22;57623;53.608;10.004;2024-03-23T12:19:38;9.30;99.90
1578;DHT22;57623;53.608;10.004;2024-03-23T12:22:06;9.10;99.90
1578;DHT22;57623;53.608;10.004;2024-03-23T12:24:33;9.00;99.90
1578;DHT22;57623;53.608;10.004;2024-03-23T12:27:01;9.00;99.90
1578;DHT22;57623;53.608;10.004;2024-03-23T12:29:29;9.00;99.90
1578;DHT22;57623;53.608;10.004;2024-03-23T12:31:59;9.20;99.90
1578;DHT22;57623;53.608;10.004;2024-03-23T12:34:25;9.50;99.90
1578;DHT22;57623;53.608;10.004;2024-03-23T12:36:52;9.70;99.90
1578;DHT22;57623;53.608;10.004;2024-03-23T12:39:19;9.80;99.90
1578;DHT22;57623;53.608;10.004;2024-03-23T12:41:46;9.80;99.90
1578;DHT22;57623;53.608;10.004;2024-03-23T12:44:12;9.70;99.90
1578;DHT22;57623;53.608;10.004;2024-03-23T12:46:41;9.40;99.90
1578;DHT22;57623;53.608;10.004;2024-03-23T12:49:08;9.20;99.90
1578;DHT22;57623;53.608;10.004;2024-03-23T12:51:35;8.80;99.90
1578;DHT22;57623;53.608;10.004;2024-03-23T12:54:02;8.60;99.90
1578;DHT22;57623;53.608;10.004;2024-03-23T12:56:29;8.40;99.90
1578;DHT22;57623;53.608;10.004;2024-03-23T12:58:55;8.20;99.90
1578;DHT22;57623;53.608;10.004;2024-03-23T13:01:23;8.00;99.90
1578;DHT22;57623;53.608;10.004;2024-03-23T13:03:49;7.90;99.90
1578;DHT22;57623;53.608;10.004;2024-03-23T13:06:18;7.80;99.90
1578;DHT22;57623;53.608;10.004;2024-03-23T13:08:45;7.70;99.90
1578;DHT22;57623;53.608;10.004;2024-03-23T13:11:12;7.80;99.90
1578;DHT22;57623;53.608;10.004;2024-03-23T13:13:39;7.90;99.90
1578;DHT22;57623;53.608;10.004;2024-03-23T13:16:08;8.00;99.90
1578;DHT22;57623;53.608;10.004;2024-03-23T13:18:34;8.10;99.90
1578;DHT22;57623;53.608;10.004;2024-03-23T13:21:01;8.10;99.90
1578;DHT22;57623;53.608;10.004;2024-03-23T13:23:29;8.10;99.90
1578;DHT22;57623;53.608;10.004;2024-03-23T13:25:57;8.10;99.90
1578;DHT22;57623;53.608;10.004;2024-03-23T13:28:23;8.10;99.90
1578;DHT22;57623;53.608;10.004;2024-03-23T13:30:51;8.10;99.90
1578;DHT22;57623;53.608;10.004;2024-03-23T13:33:17;8.10;99.90
1578;DHT22;57623;53.608;10.004;2024-03-23T13:35:51;8.10;99.90
1578;DHT22;57623;53.608;10.004;2024-03-23T13:38:17;8.10;99.90
1578;DHT22;57623;53.608;10.004;2024-03-23T13:40:53;8.30;99.90
1578;DHT22;57623;53.608;10.004;2024-03-23T13:43:20;10.00;99.90
1578;DHT22;57623;53.608;10.004;2024-03-23T13:45:47;11.70;99.90
1578;DHT22;57623;53.608;10.004;2024-03-23T13:48:14;12.70;99.90
1578;DHT22;57623;53.608;10.004;2024-03-23T13:50:42;13.00;99.90
1578;DHT22;57623;53.608;10.004;2024-03-23T13:53:08;13.00;99.90
1578;DHT22;57623;53.608;10.004;2024-03-23T13:55:35;12.80;99.90
1578;DHT22;57623;53.608;10.004;2024-03-23T13:58:03;12.50;99.90
1578;DHT22;57623;53.608;10.004;2024-03-23T14:00:30;12.40;99.90
1578;DHT22;57623;53.608;10.004;2024-03-23T14:02:58;12.40;99.90
1578;DHT22;57623;53.608;10.004;2024-03-23T14:05:25;12.10;99.90
1578;DHT22;57623;53.608;10.004;2024-03-23T14:07:51;11.90;99.90
1578;DHT22;57623;53.608;10.004;2024-03-23T14:10:18;11.60;99.90
1578;DHT22;57623;53.608;10.004;2024-03-23T14:12:44;11.30;99.90
1578;DHT22;57623;53.608;10.004;2024-03-23T14:15:12;11.20;99.90
1578;DHT22;57623;53.608;10.004;2024-03-23T14:17:38;11.30;99.90
1578;DHT22;57623;53.608;10.004;2024-03-23T14:20:06;11.40;99.90
1578;DHT22;57623;53.608;10.004;2024-03-23T14:22:35;11.40;99.90
1578;DHT22;57623;53.608;10.004;2024-03-23T14:25:02;11.40;99.90
1578;DHT22;57623;53.608;10.004;2024-03-23T14:27:29;11.30;99.90
1578;DHT22;57623;53.608;10.004;2024-03-23T14:29:56;11.20;99.90
1578;DHT22;57623;53.608;10.004;2024-03-23T14:32:23;11.20;99.90
1578;DHT22;57623;53.608;10.004;2024-03-23T14:34:51;11.20;99.90
1578;DHT22;57623;53.608;10.004;2024-03-23T14:37:19;11.20;99.90
1578;DHT22;57623;53.608;10.004;2024-03-23T14:39:46;11.00;99.90
1578;DHT22;57623;53.608;10.004;2024-03-23T14:42:13;10.90;99.90
1578;DHT22;57623;53.608;10.004;2024-03-23T14:44:40;10.80;99.90
1578;DHT22;57623;53.608;10.004;2024-03-23T14:47:06;10.80;99.90
1578;DHT22;57623;53.608;10.004;2024-03-23T14:49:34;10.80;99.90
1578;DHT22;57623;53.608;10.004;2024-03-23T14:52:00;10.70;99.90
1578;DHT22;57623;53.608;10.004;2024-03-23T14:54:27;10.60;99.90
1578;DHT22;57623;53.608;10.004;2024-03-23T14:56:55;10.40;99.90
1578;DHT22;57623;53.608;10.004;2024-03-23T14:59:22;10.30;99.90
1578;DHT22;57623;53.608;10.004;2024-03-23T15:01:49;10.10;99.90
1578;DHT22;57623;53.608;10.004;2024-03-23T15:04:15;9.90;99.90
1578;DHT22;57623;53.608;10.004;2024-03-23T15:06:43;9.70;99.90
1578;DHT22;57623;53.608;10.004;2024-03-23T15:09:12;9.50;99.90
1578;DHT22;57623;53.608;10.004;2024-03-23T15:11:39;9.20;99.90
1578;DHT22;57623;53.608;10.004;2024-03-23T15:14:06;9.10;99.90
1578;DHT22;57623;53.608;10.004;2024-03-23T15:16:33;9.00;99.90
1578;DHT22;57623;53.608;10.004;2024-03-23T15:19:00;8.90;99.90
1578;DHT22;57623;53.608;10.004;2024-03-23T15:21:26;8.80;99.90
1578;DHT22;57623;53.608;10.004;2024-03-23T15:23:54;8.90;99.90
1578;DHT22;57623;53.608;10.004;2024-03-23T15:26:21;9.00;99.90
1578;DHT22;57623;53.608;10.004;2024-03-23T15:28:49;9.00;99.90
1578;DHT22;57623;53.608;10.004;2024-03-23T15:31:35;9.00;99.90
1578;DHT22;57623;53.608;10.004;2024-03-23T15:34:03;9.10;99.90
1578;DHT22;57623;53.608;10.004;2024-03-23T15:36:30;9.10;99.90
1578;DHT22;57623;53.608;10.004;2024-03-23T15:38:58;9.10;99.90
1578;DHT22;57623;53.608;10.004;2024-03-23T15:41:24;9.10;99.90
1578;DHT22;57623;53.608;10.004;2024-03-23T15:43:52;9.10;99.90
1578;DHT22;57623;53.608;10.004;2024-03-23T15:46:18;9.10;99.90
1578;DHT22;57623;53.608;10.004;2024-03-23T15:48:46;9.10;99.90
1578;DHT22;57623;53.608;10.004;2024-03-23T15:51:13;9.00;99.90
1578;DHT22;57623;53.608;10.004;2024-03-23T15:53:40;9.00;99.90
1578;DHT22;57623;53.608;10.004;2024-03-23T15:56:07;9.00;99.90
1578;DHT22;57623;53.608;10.004;2024-03-23T15:58:35;9.00;99.90
1578;DHT22;57623;53.608;10.004;2024-03-23T16:01:02;8.90;99.90
1578;DHT22;57623;53.608;10.004;2024-03-23T16:03:30;8.90;99.90
1578;DHT22;57623;53.608;10.004;2024-03-23T16:05:59;8.90;99.90
1578;DHT22;57623;53.608;10.004;2024-03-23T16:08:26;8.90;99.90
1578;DHT22;57623;53.608;10.004;2024-03-23T16:10:53;8.90;99.90
1578;DHT22;57623;53.608;10.004;2024-03-23T16:13:23;8.90;99.90
1578;DHT22;57623;53.608;10.004;2024-03-23T16:15:54;8.80;99.90
1578;DHT22;57623;53.608;10.004;2024-03-23T16:18:22;8.80;99.90
1578;DHT22;57623;53.608;10.004;2024-03-23T16:20:55;8.70;99.90
1578;DHT22;57623;53.608;10.004;2024-03-23T16:23:22;8.60;99.90
1578;DHT22;57623;53.608;10.004;2024-03-23T16:25:49;8.60;99.90
1578;DHT22;57623;53.608;10.004;2024-03-23T16:28:26;8.60;99.90
1578;DHT22;57623;53.608;10.004;2024-03-23T16:30:57;8.60;99.90
1578;DHT22;57623;53.608;10.004;2024-03-23T16:33:24;8.60;99.90
1578;DHT22;57623;53.608;10.004;2024-03-23T16:35:58;8.60;99.90
1578;DHT22;57623;53.608;10.004;2024-03-23T16:38:25;8.60;99.90
1578;DHT22;57623;53.608;10.004;2024-03-23T16:40:56;8.40;99.90
1578;DHT22;57623;53.608;10.004;2024-03-23T16:43:23;8.20;99.90